sensor_id;sensor_type;location;lat;lon;timestamp;pressure;altitude;pressure_sealevel;temperature;humidity
62697;BME280;48761;42.680;23.312;2023-04-27T00:01:10;94524.53;;;9.43;49.45
62697;BME280;48761;42.680;23.312;2023-04-27T00:03:36;94529.06;;;9.53;49.17
62697;BME280;48761;42.680;23.312;2023-04-27T00:06:02;94537.88;;;9.92;48.78
62697;BME280;48761;42.680;23.312;2023-04-27T00:08:29;94542.34;;;9.91;48.56
62697;BME280;48761;42.680;23.312;2023-04-27T00:10:58;94540.28;;;9.70;48.45
62697;BME280;48761;42.680;23.312;2023-04-27T00:13:24;94543.69;;;9.72;48.86
62697;BME280;48761;42.680;23.312;2023-04-27T00:15:50;94534.88;;;9.59;48.68
62697;BME280;48761;42.680;23.312;2023-04-27T00:18:16;94538.34;;;9.48;48.92
62697;BME280;48761;42.680;23.312;2023-04-27T00:20:42;94554.34;;;9.46;49.00
62697;BME280;48761;42.680;23.312;2023-04-27T00:23:08;94546.28;;;9.48;49.12
62697;BME280;48761;42.680;23.312;2023-04-27T00:25:34;94549.16;;;9.45;49.35
62697;BME280;48761;42.680;23.312;2023-04-27T00:28:00;94517.66;;;9.40;49.03
62697;BME280;48761;42.680;23.312;2023-04-27T00:30:26;94541.81;;;9.48;48.98
62697;BME280;48761;42.680;23.312;2023-04-27T00:32:52;94550.44;;;9.39;49.76
62697;BME280;48761;42.680;23.312;2023-04-27T00:35:18;94533.13;;;9.46;49.14
62697;BME280;48761;42.680;23.312;2023-04-27T00:37:44;94543.13;;;9.43;49.22
62697;BME280;48761;42.680;23.312;2023-04-27T00:40:10;94545.22;;;9.50;49.08
62697;BME280;48761;42.680;23.312;2023-04-27T00:42:36;94541.41;;;9.28;49.00
62697;BME280;48761;42.680;23.312;2023-04-27T00:45:02;94542.78;;;9.47;49.46
62697;BME280;48761;42.680;23.312;2023-04-27T00:47:29;94534.84;;;9.21;49.80
62697;BME280;48761;42.680;23.312;2023-04-27T00:49:55;94518.91;;;9.34;49.18
62697;BME280;48761;42.680;23.312;2023-04-27T00:52:21;94553.53;;;9.33;49.57
62697;BME280;48761;42.680;23.312;2023-04-27T00:54:49;94552.88;;;9.42;49.09
62697;BME280;48761;42.680;23.312;2023-04-27T00:57:16;94547.50;;;9.17;49.66
62697;BME280;48761;42.680;23.312;2023-04-27T00:59:41;94531.56;;;8.91;50.10
62697;BME280;48761;42.680;23.312;2023-04-27T01:02:10;94548.63;;;9.26;49.33
62697;BME280;48761;42.680;23.312;2023-04-27T01:04:36;94540.47;;;9.03;49.52
62697;BME280;48761;42.680;23.312;2023-04-27T01:07:03;94556.91;;;9.22;49.63
62697;BME280;48761;42.680;23.312;2023-04-27T01:09:29;94561.03;;;9.13;49.81
62697;BME280;48761;42.680;23.312;2023-04-27T01:11:55;94547.16;;;9.22;49.68
62697;BME280;48761;42.680;23.312;2023-04-27T01:14:21;94552.03;;;9.28;49.37
62697;BME280;48761;42.680;23.312;2023-04-27T01:16:47;94562.50;;;9.43;49.20
62697;BME280;48761;42.680;23.312;2023-04-27T01:19:12;94564.53;;;9.52;48.92
62697;BME280;48761;42.680;23.312;2023-04-27T01:21:38;94554.97;;;9.50;49.23
62697;BME280;48761;42.680;23.312;2023-04-27T01:24:05;94550.03;;;9.32;49.33
62697;BME280;48761;42.680;23.312;2023-04-27T01:26:31;94563.03;;;9.48;49.05
62697;BME280;48761;42.680;23.312;2023-04-27T01:28:57;94544.38;;;9.24;49.22
62697;BME280;48761;42.680;23.312;2023-04-27T01:31:23;94571.13;;;9.34;49.13
62697;BME280;48761;42.680;23.312;2023-04-27T01:33:49;94570.69;;;9.40;49.51
62697;BME280;48761;42.680;23.312;2023-04-27T01:36:15;94572.69;;;9.49;49.26
62697;BME280;48761;42.680;23.312;2023-04-27T01:38:41;94561.44;;;9.46;48.99
62697;BME280;48761;42.680;23.312;2023-04-27T01:41:08;94532.63;;;9.15;49.12
62697;BME280;48761;42.680;23.312;2023-04-27T01:43:35;94572.38;;;9.41;49.18
62697;BME280;48761;42.680;23.312;2023-04-27T01:46:09;94573.25;;;9.28;49.43
62697;BME280;48761;42.680;23.312;2023-04-27T01:48:35;94577.72;;;9.15;49.53
62697;BME280;48761;42.680;23.312;2023-04-27T01:51:01;94580.25;;;9.16;49.73
62697;BME280;48761;42.680;23.312;2023-04-27T01:53:28;94573.16;;;9.17;49.64
62697;BME280;48761;42.680;23.312;2023-04-27T01:55:54;94573.47;;;9.12;49.30
62697;BME280;48761;42.680;23.312;2023-04-27T01:58:20;94572.38;;;9.28;49.02
62697;BME280;48761;42.680;23.312;2023-04-27T02:00:46;94576.22;;;9.37;49.13
62697;BME280;48761;42.680;23.312;2023-04-27T02:03:12;94569.84;;;9.00;49.53
62697;BME280;48761;42.680;23.312;2023-04-27T02:05:38;94560.31;;;9.11;49.10
62697;BME280;48761;42.680;23.312;2023-04-27T02:08:04;94581.63;;;9.22;49.37
62697;BME280;48761;42.680;23.312;2023-04-27T02:10:30;94569.00;;;9.13;49.15
62697;BME280;48761;42.680;23.312;2023-04-27T02:12:56;94573.88;;;9.06;49.69
62697;BME280;48761;42.680;23.312;2023-04-27T02:15:22;94577.19;;;9.10;49.77
62697;BME280;48761;42.680;23.312;2023-04-27T02:17:48;94574.94;;;9.16;49.55
62697;BME280;48761;42.680;23.312;2023-04-27T02:20:14;94538.22;;;8.71;49.64
62697;BME280;48761;42.680;23.312;2023-04-27T02:22:41;94572.78;;;8.82;49.65
62697;BME280;48761;42.680;23.312;2023-04-27T02:25:07;94579.41;;;8.90;49.15
62697;BME280;48761;42.680;23.312;2023-04-27T02:27:38;94575.34;;;8.84;49.05
62697;BME280;48761;42.680;23.312;2023-04-27T02:30:06;94580.63;;;8.71;50.11
62697;BME280;48761;42.680;23.312;2023-04-27T02:32:32;94577.44;;;8.66;49.83
62697;BME280;48761;42.680;23.312;2023-04-27T02:34:58;94572.25;;;8.64;49.84
62697;BME280;48761;42.680;23.312;2023-04-27T02:37:24;94582.94;;;8.62;49.74
62697;BME280;48761;42.680;23.312;2023-04-27T02:39:50;94586.06;;;8.55;50.09
62697;BME280;48761;42.680;23.312;2023-04-27T02:42:16;94594.97;;;8.54;49.90
62697;BME280;48761;42.680;23.312;2023-04-27T02:44:42;94584.03;;;8.73;49.99
62697;BME280;48761;42.680;23.312;2023-04-27T02:47:09;94584.44;;;8.80;49.82
62697;BME280;48761;42.680;23.312;2023-04-27T02:49:35;94585.00;;;8.72;49.34
62697;BME280;48761;42.680;23.312;2023-04-27T02:52:01;94589.63;;;8.68;49.61
62697;BME280;48761;42.680;23.312;2023-04-27T02:54:27;94588.78;;;8.68;49.67
62697;BME280;48761;42.680;23.312;2023-04-27T02:56:53;94590.81;;;8.49;50.07
62697;BME280;48761;42.680;23.312;2023-04-27T02:59:18;94583.16;;;8.45;49.90
62697;BME280;48761;42.680;23.312;2023-04-27T03:01:45;94565.16;;;8.50;49.86
62697;BME280;48761;42.680;23.312;2023-04-27T03:04:11;94595.59;;;8.57;49.77
62697;BME280;48761;42.680;23.312;2023-04-27T03:06:37;94583.44;;;8.27;49.86
62697;BME280;48761;42.680;23.312;2023-04-27T03:09:02;94601.59;;;8.33;50.32
62697;BME280;48761;42.680;23.312;2023-04-27T03:11:28;94585.88;;;8.30;49.76
62697;BME280;48761;42.680;23.312;2023-04-27T03:13:54;94593.13;;;8.41;49.58
62697;BME280;48761;42.680;23.312;2023-04-27T03:16:20;94607.44;;;8.38;49.72
62697;BME280;48761;42.680;23.312;2023-04-27T03:18:46;94598.50;;;8.39;50.42
62697;BME280;48761;42.680;23.312;2023-04-27T03:21:12;94608.72;;;8.46;49.84
62697;BME280;48761;42.680;23.312;2023-04-27T03:23:38;94597.69;;;7.96;50.41
62697;BME280;48761;42.680;23.312;2023-04-27T03:26:08;94606.72;;;8.22;50.42
62697;BME280;48761;42.680;23.312;2023-04-27T03:28:35;94616.19;;;8.26;50.37
62697;BME280;48761;42.680;23.312;2023-04-27T03:31:08;94620.59;;;7.98;50.39
62697;BME280;48761;42.680;23.312;2023-04-27T03:33:35;94615.72;;;7.62;51.27
62697;BME280;48761;42.680;23.312;2023-04-27T03:36:01;94624.38;;;7.93;51.30
62697;BME280;48761;42.680;23.312;2023-04-27T03:38:27;94623.19;;;8.12;50.73
62697;BME280;48761;42.680;23.312;2023-04-27T03:40:53;94633.66;;;7.86;51.26
62697;BME280;48761;42.680;23.312;2023-04-27T03:43:20;94624.31;;;7.80;50.90
62697;BME280;48761;42.680;23.312;2023-04-27T03:45:46;94622.47;;;8.10;50.69
62697;BME280;48761;42.680;23.312;2023-04-27T03:48:13;94631.63;;;8.47;50.12
62697;BME280;48761;42.680;23.312;2023-04-27T03:50:39;94638.78;;;8.32;49.83
62697;BME280;48761;42.680;23.312;2023-04-27T03:53:06;94634.47;;;8.16;50.30
62697;BME280;48761;42.680;23.312;2023-04-27T03:55:32;94641.91;;;8.24;49.95
62697;BME280;48761;42.680;23.312;2023-04-27T03:57:58;94628.31;;;8.15;50.44
62697;BME280;48761;42.680;23.312;2023-04-27T04:00:24;94634.22;;;8.19;50.43
62697;BME280;48761;42.680;23.312;2023-04-27T04:02:50;94644.19;;;8.15;49.83
62697;BME280;48761;42.680;23.312;2023-04-27T04:05:15;94648.81;;;8.26;50.19
62697;BME280;48761;42.680;23.312;2023-04-27T04:07:41;94656.50;;;8.16;50.09
62697;BME280;48761;42.680;23.312;2023-04-27T04:10:08;94658.47;;;8.13;50.43
62697;BME280;48761;42.680;23.312;2023-04-27T04:12:34;94653.91;;;8.57;51.18
62697;BME280;48761;42.680;23.312;2023-04-27T04:15:00;94650.16;;;8.61;50.91
62697;BME280;48761;42.680;23.312;2023-04-27T04:17:26;94666.97;;;8.18;50.51
62697;BME280;48761;42.680;23.312;2023-04-27T04:19:51;94667.38;;;8.39;53.37
62697;BME280;48761;42.680;23.312;2023-04-27T04:22:17;94670.34;;;8.77;50.78
62697;BME280;48761;42.680;23.312;2023-04-27T04:24:43;94662.91;;;8.69;49.81
62697;BME280;48761;42.680;23.312;2023-04-27T04:27:09;94681.00;;;8.48;49.76
62697;BME280;48761;42.680;23.312;2023-04-27T04:29:35;94682.50;;;8.52;49.17
62697;BME280;48761;42.680;23.312;2023-04-27T04:32:01;94684.91;;;8.70;48.87
62697;BME280;48761;42.680;23.312;2023-04-27T04:34:27;94680.53;;;8.83;49.03
62697;BME280;48761;42.680;23.312;2023-04-27T04:36:53;94683.78;;;9.15;49.08
62697;BME280;48761;42.680;23.312;2023-04-27T04:39:19;94680.84;;;9.46;47.68
62697;BME280;48761;42.680;23.312;2023-04-27T04:41:45;94688.38;;;9.91;47.90
62697;BME280;48761;42.680;23.312;2023-04-27T04:44:11;94654.94;;;9.23;47.09
62697;BME280;48761;42.680;23.312;2023-04-27T04:46:37;94673.78;;;9.05;47.14
62697;BME280;48761;42.680;23.312;2023-04-27T04:49:03;94686.47;;;9.41;47.29
62697;BME280;48761;42.680;23.312;2023-04-27T04:51:29;94696.56;;;9.88;45.92
62697;BME280;48761;42.680;23.312;2023-04-27T04:53:55;94681.63;;;10.25;45.86
62697;BME280;48761;42.680;23.312;2023-04-27T04:56:21;94695.97;;;10.73;45.11
62697;BME280;48761;42.680;23.312;2023-04-27T04:58:47;94701.16;;;11.35;43.48
62697;BME280;48761;42.680;23.312;2023-04-27T05:01:13;94712.00;;;11.45;43.40
62697;BME280;48761;42.680;23.312;2023-04-27T05:03:39;94697.94;;;11.07;43.19
62697;BME280;48761;42.680;23.312;2023-04-27T05:06:05;94719.84;;;11.10;43.12
62697;BME280;48761;42.680;23.312;2023-04-27T05:08:31;94715.97;;;10.65;43.84
62697;BME280;48761;42.680;23.312;2023-04-27T05:10:57;94714.81;;;10.06;44.87
62697;BME280;48761;42.680;23.312;2023-04-27T05:13:23;94729.03;;;10.31;44.77
62697;BME280;48761;42.680;23.312;2023-04-27T05:15:50;94718.63;;;9.89;45.43
62697;BME280;48761;42.680;23.312;2023-04-27T05:18:17;94721.19;;;10.03;45.25
62697;BME280;48761;42.680;23.312;2023-04-27T05:20:43;94720.56;;;10.00;45.50
62697;BME280;48761;42.680;23.312;2023-04-27T05:23:09;94720.13;;;9.53;46.63
62697;BME280;48761;42.680;23.312;2023-04-27T05:25:35;94727.78;;;9.04;46.90
62697;BME280;48761;42.680;23.312;2023-04-27T05:28:01;94717.09;;;9.19;46.99
62697;BME280;48761;42.680;23.312;2023-04-27T05:30:26;94732.22;;;9.45;46.72
62697;BME280;48761;42.680;23.312;2023-04-27T05:32:52;94709.50;;;9.27;46.69
62697;BME280;48761;42.680;23.312;2023-04-27T05:35:18;94729.03;;;9.39;46.81
62697;BME280;48761;42.680;23.312;2023-04-27T05:37:44;94733.69;;;9.36;47.09
62697;BME280;48761;42.680;23.312;2023-04-27T05:40:10;94714.59;;;9.03;47.23
62697;BME280;48761;42.680;23.312;2023-04-27T05:42:36;94727.91;;;9.16;47.00
62697;BME280;48761;42.680;23.312;2023-04-27T05:45:03;94733.03;;;8.91;47.99
62697;BME280;48761;42.680;23.312;2023-04-27T05:47:29;94740.56;;;8.84;48.89
62697;BME280;48761;42.680;23.312;2023-04-27T05:49:55;94735.38;;;8.68;49.38
62697;BME280;48761;42.680;23.312;2023-04-27T05:52:21;94733.63;;;9.10;49.01
62697;BME280;48761;42.680;23.312;2023-04-27T05:54:47;94738.16;;;9.35;48.75
62697;BME280;48761;42.680;23.312;2023-04-27T05:57:14;94734.72;;;9.20;49.73
62697;BME280;48761;42.680;23.312;2023-04-27T05:59:41;94736.69;;;9.57;49.15
62697;BME280;48761;42.680;23.312;2023-04-27T06:02:07;94733.94;;;9.72;48.87
62697;BME280;48761;42.680;23.312;2023-04-27T06:04:33;94744.97;;;9.52;47.91
62697;BME280;48761;42.680;23.312;2023-04-27T06:06:59;94735.25;;;9.25;48.31
62697;BME280;48761;42.680;23.312;2023-04-27T06:09:24;94744.75;;;9.56;48.95
62697;BME280;48761;42.680;23.312;2023-04-27T06:11:50;94745.00;;;9.66;48.17
62697;BME280;48761;42.680;23.312;2023-04-27T06:14:16;94734.66;;;9.61;48.36
62697;BME280;48761;42.680;23.312;2023-04-27T06:16:42;94737.22;;;9.08;49.33
62697;BME280;48761;42.680;23.312;2023-04-27T06:19:08;94748.81;;;9.07;49.11
62697;BME280;48761;42.680;23.312;2023-04-27T06:21:34;94744.38;;;9.21;48.92
62697;BME280;48761;42.680;23.312;2023-04-27T06:24:01;94741.97;;;9.44;48.88
62697;BME280;48761;42.680;23.312;2023-04-27T06:26:27;94737.13;;;9.77;48.47
62697;BME280;48761;42.680;23.312;2023-04-27T06:28:53;94738.81;;;10.04;47.66
62697;BME280;48761;42.680;23.312;2023-04-27T06:31:19;94738.38;;;10.24;47.74
62697;BME280;48761;42.680;23.312;2023-04-27T06:33:45;94738.41;;;10.11;47.71
62697;BME280;48761;42.680;23.312;2023-04-27T06:36:11;94737.34;;;10.13;47.40
62697;BME280;48761;42.680;23.312;2023-04-27T06:38:37;94738.53;;;10.47;47.09
62697;BME280;48761;42.680;23.312;2023-04-27T06:41:03;94736.72;;;10.60;46.04
62697;BME280;48761;42.680;23.312;2023-04-27T06:43:29;94713.44;;;10.89;45.29
62697;BME280;48761;42.680;23.312;2023-04-27T06:45:55;94731.16;;;11.01;45.08
62697;BME280;48761;42.680;23.312;2023-04-27T06:48:21;94720.75;;;11.70;44.24
62697;BME280;48761;42.680;23.312;2023-04-27T06:50:47;94699.00;;;11.99;42.97
62697;BME280;48761;42.680;23.312;2023-04-27T06:53:13;94717.53;;;12.13;43.11
62697;BME280;48761;42.680;23.312;2023-04-27T06:55:39;94728.59;;;12.31;42.55
62697;BME280;48761;42.680;23.312;2023-04-27T06:58:05;94721.69;;;12.96;41.19
62697;BME280;48761;42.680;23.312;2023-04-27T07:00:31;94725.41;;;13.38;40.75
62697;BME280;48761;42.680;23.312;2023-04-27T07:02:57;94724.13;;;13.53;39.94
62697;BME280;48761;42.680;23.312;2023-04-27T07:05:23;94714.50;;;13.08;40.53
62697;BME280;48761;42.680;23.312;2023-04-27T07:07:49;94717.13;;;12.86;40.65
62697;BME280;48761;42.680;23.312;2023-04-27T07:10:15;94722.22;;;12.66;41.23
62697;BME280;48761;42.680;23.312;2023-04-27T07:12:41;94720.03;;;12.83;40.87
62697;BME280;48761;42.680;23.312;2023-04-27T07:15:07;94727.63;;;12.43;41.04
62697;BME280;48761;42.680;23.312;2023-04-27T07:17:34;94716.94;;;12.43;41.14
62697;BME280;48761;42.680;23.312;2023-04-27T07:20:00;94710.69;;;11.74;41.53
62697;BME280;48761;42.680;23.312;2023-04-27T07:22:26;94721.31;;;12.33;41.81
62697;BME280;48761;42.680;23.312;2023-04-27T07:24:52;94724.91;;;12.66;41.56
62697;BME280;48761;42.680;23.312;2023-04-27T07:27:18;94715.25;;;12.42;41.54
62697;BME280;48761;42.680;23.312;2023-04-27T07:29:44;94714.88;;;12.13;40.87
62697;BME280;48761;42.680;23.312;2023-04-27T07:32:10;94709.91;;;12.19;40.27
62697;BME280;48761;42.680;23.312;2023-04-27T07:34:36;94711.63;;;12.43;40.93
62697;BME280;48761;42.680;23.312;2023-04-27T07:37:02;94714.00;;;12.12;40.77
62697;BME280;48761;42.680;23.312;2023-04-27T07:39:28;94708.69;;;12.12;40.24
62697;BME280;48761;42.680;23.312;2023-04-27T07:41:53;94711.13;;;12.27;39.82
62697;BME280;48761;42.680;23.312;2023-04-27T07:44:19;94714.69;;;12.83;39.41
62697;BME280;48761;42.680;23.312;2023-04-27T07:46:46;94707.81;;;13.68;38.48
62697;BME280;48761;42.680;23.312;2023-04-27T07:49:12;94702.16;;;13.28;37.82
62697;BME280;48761;42.680;23.312;2023-04-27T07:51:38;94709.22;;;13.94;37.61
62697;BME280;48761;42.680;23.312;2023-04-27T07:54:04;94715.31;;;14.68;36.02
62697;BME280;48761;42.680;23.312;2023-04-27T07:56:30;94714.72;;;15.06;35.18
62697;BME280;48761;42.680;23.312;2023-04-27T07:58:56;94714.59;;;14.66;36.19
62697;BME280;48761;42.680;23.312;2023-04-27T08:01:22;94719.09;;;14.25;36.49
62697;BME280;48761;42.680;23.312;2023-04-27T08:03:48;94702.66;;;14.81;35.40
62697;BME280;48761;42.680;23.312;2023-04-27T08:06:14;94719.56;;;14.81;36.24
62697;BME280;48761;42.680;23.312;2023-04-27T08:08:40;94652.75;;;14.50;36.37
62697;BME280;48761;42.680;23.312;2023-04-27T08:11:10;94690.47;;;15.38;35.15
62697;BME280;48761;42.680;23.312;2023-04-27T08:13:36;94714.69;;;15.66;34.61
62697;BME280;48761;42.680;23.312;2023-04-27T08:16:02;94689.50;;;15.29;34.57
62697;BME280;48761;42.680;23.312;2023-04-27T08:18:28;94710.22;;;15.46;35.02
62697;BME280;48761;42.680;23.312;2023-04-27T08:20:54;94716.66;;;15.04;34.87
62697;BME280;48761;42.680;23.312;2023-04-27T08:23:20;94702.41;;;15.73;34.68
62697;BME280;48761;42.680;23.312;2023-04-27T08:25:46;94712.75;;;15.48;34.83
62697;BME280;48761;42.680;23.312;2023-04-27T08:28:14;94700.03;;;14.90;35.08
62697;BME280;48761;42.680;23.312;2023-04-27T08:30:42;94711.34;;;15.44;34.12
62697;BME280;48761;42.680;23.312;2023-04-27T08:33:10;94714.53;;;16.07;33.74
62697;BME280;48761;42.680;23.312;2023-04-27T08:35:35;94700.63;;;15.44;34.22
62697;BME280;48761;42.680;23.312;2023-04-27T08:38:01;94702.88;;;15.19;34.88
62697;BME280;48761;42.680;23.312;2023-04-27T08:40:27;94719.75;;;15.09;35.94
62697;BME280;48761;42.680;23.312;2023-04-27T08:42:55;94694.34;;;14.74;35.53
62697;BME280;48761;42.680;23.312;2023-04-27T08:45:23;94711.97;;;14.35;36.70
62697;BME280;48761;42.680;23.312;2023-04-27T08:47:49;94694.19;;;14.65;36.59
62697;BME280;48761;42.680;23.312;2023-04-27T08:50:15;94712.84;;;14.87;36.00
62697;BME280;48761;42.680;23.312;2023-04-27T08:52:47;94708.50;;;15.45;36.31
62697;BME280;48761;42.680;23.312;2023-04-27T08:55:13;94714.00;;;15.64;34.41
62697;BME280;48761;42.680;23.312;2023-04-27T08:57:39;94712.72;;;14.88;35.27
62697;BME280;48761;42.680;23.312;2023-04-27T09:00:05;94683.66;;;14.74;35.69
62697;BME280;48761;42.680;23.312;2023-04-27T09:02:31;94692.72;;;15.12;35.65
62697;BME280;48761;42.680;23.312;2023-04-27T09:04:57;94712.06;;;15.26;35.10
62697;BME280;48761;42.680;23.312;2023-04-27T09:07:23;94688.47;;;14.90;34.92
62697;BME280;48761;42.680;23.312;2023-04-27T09:09:49;94706.25;;;15.01;36.15
62697;BME280;48761;42.680;23.312;2023-04-27T09:12:19;94698.22;;;15.41;34.76
62697;BME280;48761;42.680;23.312;2023-04-27T09:14:59;94698.06;;;15.72;34.88
62697;BME280;48761;42.680;23.312;2023-04-27T09:17:26;94660.31;;;14.96;35.56
62697;BME280;48761;42.680;23.312;2023-04-27T09:20:03;94675.88;;;15.90;34.13
62697;BME280;48761;42.680;23.312;2023-04-27T09:22:29;94698.06;;;15.72;34.53
62697;BME280;48761;42.680;23.312;2023-04-27T09:24:55;94672.78;;;15.85;34.42
62697;BME280;48761;42.680;23.312;2023-04-27T09:27:21;94684.72;;;16.00;34.54
62697;BME280;48761;42.680;23.312;2023-04-27T09:29:47;94670.75;;;15.49;34.60
62697;BME280;48761;42.680;23.312;2023-04-27T09:32:16;94691.47;;;15.37;35.06
62697;BME280;48761;42.680;23.312;2023-04-27T09:34:42;94691.31;;;15.08;34.96
62697;BME280;48761;42.680;23.312;2023-04-27T09:37:09;94689.94;;;15.24;34.60
62697;BME280;48761;42.680;23.312;2023-04-27T09:39:35;94663.44;;;15.01;34.54
62697;BME280;48761;42.680;23.312;2023-04-27T09:42:02;94678.78;;;15.49;33.73
62697;BME280;48761;42.680;23.312;2023-04-27T09:44:28;94670.72;;;15.58;34.16
62697;BME280;48761;42.680;23.312;2023-04-27T09:46:57;94660.28;;;15.55;34.08
62697;BME280;48761;42.680;23.312;2023-04-27T09:49:25;94648.13;;;15.71;34.04
62697;BME280;48761;42.680;23.312;2023-04-27T09:51:51;94666.53;;;15.16;33.88
62697;BME280;48761;42.680;23.312;2023-04-27T09:54:18;94667.75;;;15.62;33.34
62697;BME280;48761;42.680;23.312;2023-04-27T09:56:58;94663.09;;;15.74;33.79
62697;BME280;48761;42.680;23.312;2023-04-27T10:02:20;94666.53;;;15.26;33.89
62697;BME280;48761;42.680;23.312;2023-04-27T10:05:28;94679.59;;;14.89;34.52
62697;BME280;48761;42.680;23.312;2023-04-27T10:07:55;94666.44;;;14.66;35.34
62697;BME280;48761;42.680;23.312;2023-04-27T10:10:21;94670.41;;;14.82;34.80
62697;BME280;48761;42.680;23.312;2023-04-27T10:12:59;94666.13;;;14.50;34.52
62697;BME280;48761;42.680;23.312;2023-04-27T10:15:26;94663.44;;;15.11;34.50
62697;BME280;48761;42.680;23.312;2023-04-27T10:17:52;94667.41;;;14.55;34.80
62697;BME280;48761;42.680;23.312;2023-04-27T10:20:28;94659.81;;;14.51;35.63
62697;BME280;48761;42.680;23.312;2023-04-27T10:22:54;94649.22;;;14.39;36.33
62697;BME280;48761;42.680;23.312;2023-04-27T10:28:13;94662.56;;;15.30;34.07
62697;BME280;48761;42.680;23.312;2023-04-27T10:30:43;94644.84;;;15.29;33.87
62697;BME280;48761;42.680;23.312;2023-04-27T10:33:10;94648.28;;;14.70;33.57
62697;BME280;48761;42.680;23.312;2023-04-27T10:35:42;94659.47;;;15.05;33.67
62697;BME280;48761;42.680;23.312;2023-04-27T10:38:11;94663.06;;;14.13;34.97
62697;BME280;48761;42.680;23.312;2023-04-27T10:40:39;94633.53;;;14.76;34.06
62697;BME280;48761;42.680;23.312;2023-04-27T10:43:10;94662.78;;;14.67;33.51
62697;BME280;48761;42.680;23.312;2023-04-27T10:45:36;94641.44;;;14.36;34.23
62697;BME280;48761;42.680;23.312;2023-04-27T10:48:03;94655.63;;;14.78;33.21
62697;BME280;48761;42.680;23.312;2023-04-27T10:50:30;94654.03;;;14.45;34.01
62697;BME280;48761;42.680;23.312;2023-04-27T10:52:59;94650.69;;;14.73;33.76
62697;BME280;48761;42.680;23.312;2023-04-27T10:55:25;94626.75;;;14.72;33.79
62697;BME280;48761;42.680;23.312;2023-04-27T10:57:53;94649.56;;;14.76;32.56
62697;BME280;48761;42.680;23.312;2023-04-27T11:00:37;94658.19;;;14.89;33.31
62697;BME280;48761;42.680;23.312;2023-04-27T11:03:18;94638.34;;;14.92;32.79
62697;BME280;48761;42.680;23.312;2023-04-27T11:05:46;94650.75;;;15.23;32.82
62697;BME280;48761;42.680;23.312;2023-04-27T11:08:14;94646.25;;;15.13;31.94
62697;BME280;48761;42.680;23.312;2023-04-27T11:10:48;94644.41;;;15.24;31.63
62697;BME280;48761;42.680;23.312;2023-04-27T11:13:22;94648.19;;;15.41;32.57
62697;BME280;48761;42.680;23.312;2023-04-27T11:15:51;94634.69;;;15.91;32.61
62697;BME280;48761;42.680;23.312;2023-04-27T11:18:19;94638.50;;;15.88;32.47
62697;BME280;48761;42.680;23.312;2023-04-27T11:20:50;94630.44;;;15.30;33.00
62697;BME280;48761;42.680;23.312;2023-04-27T11:23:28;94661.38;;;15.73;32.67
62697;BME280;48761;42.680;23.312;2023-04-27T11:25:55;94653.25;;;15.64;32.67
62697;BME280;48761;42.680;23.312;2023-04-27T11:28:22;94641.75;;;15.24;32.58
62697;BME280;48761;42.680;23.312;2023-04-27T11:30:58;94669.91;;;15.28;32.56
62697;BME280;48761;42.680;23.312;2023-04-27T11:33:25;94668.91;;;14.99;33.19
62697;BME280;48761;42.680;23.312;2023-04-27T11:35:51;94660.59;;;15.42;32.60
62697;BME280;48761;42.680;23.312;2023-04-27T11:38:18;94659.63;;;14.94;33.13
62697;BME280;48761;42.680;23.312;2023-04-27T11:41:04;94662.56;;;15.30;33.48
62697;BME280;48761;42.680;23.312;2023-04-27T11:43:31;94666.53;;;15.26;33.02
62697;BME280;48761;42.680;23.312;2023-04-27T11:46:01;94638.56;;;14.79;32.90
62697;BME280;48761;42.680;23.312;2023-04-27T11:48:27;94656.63;;;14.87;33.53
62697;BME280;48761;42.680;23.312;2023-04-27T11:50:56;94667.31;;;14.77;33.98
62697;BME280;48761;42.680;23.312;2023-04-27T11:53:33;94664.41;;;14.49;33.85
62697;BME280;48761;42.680;23.312;2023-04-27T11:56:01;94674.47;;;14.66;33.81
62697;BME280;48761;42.680;23.312;2023-04-27T11:58:27;94677.94;;;14.47;33.54
62697;BME280;48761;42.680;23.312;2023-04-27T12:00:55;94671.91;;;14.55;33.68
62697;BME280;48761;42.680;23.312;2023-04-27T12:03:21;94660.97;;;14.78;33.56
62697;BME280;48761;42.680;23.312;2023-04-27T12:05:48;94656.41;;;14.49;33.97
62697;BME280;48761;42.680;23.312;2023-04-27T12:08:18;94679.53;;;14.18;34.56
62697;BME280;48761;42.680;23.312;2023-04-27T12:10:45;94640.16;;;14.20;33.71
62697;BME280;48761;42.680;23.312;2023-04-27T12:13:11;94679.38;;;14.61;34.51
62697;BME280;48761;42.680;23.312;2023-04-27T12:15:37;94663.59;;;14.48;34.30
62697;BME280;48761;42.680;23.312;2023-04-27T12:18:04;94677.75;;;14.39;33.92
62697;BME280;48761;42.680;23.312;2023-04-27T12:20:30;94674.28;;;14.38;34.11
62697;BME280;48761;42.680;23.312;2023-04-27T12:22:56;94651.75;;;14.41;34.88
62697;BME280;48761;42.680;23.312;2023-04-27T12:25:22;94676.66;;;14.93;34.49
62697;BME280;48761;42.680;23.312;2023-04-27T12:27:48;94680.03;;;15.15;33.56
62697;BME280;48761;42.680;23.312;2023-04-27T12:30:14;94661.91;;;14.57;33.83
62697;BME280;48761;42.680;23.312;2023-04-27T12:32:40;94651.38;;;14.14;34.00
62697;BME280;48761;42.680;23.312;2023-04-27T12:35:07;94684.59;;;14.21;34.72
62697;BME280;48761;42.680;23.312;2023-04-27T12:37:33;94684.03;;;14.18;34.57
62697;BME280;48761;42.680;23.312;2023-04-27T12:39:59;94683.63;;;13.91;34.94
62697;BME280;48761;42.680;23.312;2023-04-27T12:42:25;94680.59;;;14.06;34.43
62697;BME280;48761;42.680;23.312;2023-04-27T12:44:52;94687.13;;;14.13;34.70
62697;BME280;48761;42.680;23.312;2023-04-27T12:47:19;94688.34;;;14.40;34.46
62697;BME280;48761;42.680;23.312;2023-04-27T12:49:46;94665.78;;;14.23;34.13
62697;BME280;48761;42.680;23.312;2023-04-27T12:52:12;94685.22;;;14.35;34.36
62697;BME280;48761;42.680;23.312;2023-04-27T12:54:38;94681.84;;;14.33;34.40
62697;BME280;48761;42.680;23.312;2023-04-27T12:57:05;94681.25;;;14.29;34.90
62697;BME280;48761;42.680;23.312;2023-04-27T12:59:34;94671.78;;;13.84;34.69